sensor_id;sensor_type;location;lat;lon;timestamp;P1;durP1;ratioP1;P2;durP2;ratioP2
25984;SDS011;66753;53.848;10.658;2023-05-18T00:13:41;4.40;;;0.93;;
25984;SDS011;66753;53.848;10.658;2023-05-18T00:28:43;7.43;;;1.00;;
25984;SDS011;66753;53.848;10.658;2023-05-18T00:43:45;2.83;;;0.80;;
25984;SDS011;66753;53.848;10.658;2023-05-18T00:58:47;4.43;;;1.17;;
25984;SDS011;66753;53.848;10.658;2023-05-18T01:13:58;2.40;;;1.00;;
25984;SDS011;66753;53.848;10.658;2023-05-18T01:29:09;6.07;;;1.20;;
25984;SDS011;66753;53.848;10.658;2023-05-18T01:59:33;5.00;;;1.10;;
25984;SDS011;66753;53.848;10.658;2023-05-18T02:14:36;4.93;;;1.00;;
25984;SDS011;66753;53.848;10.658;2023-05-18T02:29:38;5.00;;;1.30;;
25984;SDS011;66753;53.848;10.658;2023-05-18T02:44:40;4.57;;;1.00;;
25984;SDS011;66753;53.848;10.658;2023-05-18T02:59:43;6.00;;;1.30;;
25984;SDS011;66753;53.848;10.658;2023-05-18T03:14:44;4.83;;;1.00;;
25984;SDS011;66753;53.848;10.658;2023-05-18T03:29:46;4.33;;;1.67;;
25984;SDS011;66753;53.848;10.658;2023-05-18T03:44:47;4.57;;;1.27;;
25984;SDS011;66753;53.848;10.658;2023-05-18T03:59:48;7.80;;;1.60;;
25984;SDS011;66753;53.848;10.658;2023-05-18T04:14:50;5.33;;;1.30;;
25984;SDS011;66753;53.848;10.658;2023-05-18T04:29:53;4.63;;;1.00;;
25984;SDS011;66753;53.848;10.658;2023-05-18T04:44:55;4.83;;;1.20;;
25984;SDS011;66753;53.848;10.658;2023-05-18T04:59:56;4.23;;;1.23;;
25984;SDS011;66753;53.848;10.658;2023-05-18T05:14:58;5.57;;;0.93;;
25984;SDS011;66753;53.848;10.658;2023-05-18T05:30:00;4.53;;;1.17;;
25984;SDS011;66753;53.848;10.658;2023-05-18T05:45:02;5.77;;;1.30;;
25984;SDS011;66753;53.848;10.658;2023-05-18T06:00:04;4.90;;;1.47;;
25984;SDS011;66753;53.848;10.658;2023-05-18T06:15:09;5.00;;;1.00;;
25984;SDS011;66753;53.848;10.658;2023-05-18T06:30:11;6.60;;;1.20;;
25984;SDS011;66753;53.848;10.658;2023-05-18T06:45:13;3.37;;;0.97;;
25984;SDS011;66753;53.848;10.658;2023-05-18T07:00:14;5.33;;;1.10;;
25984;SDS011;66753;53.848;10.658;2023-05-18T07:15:16;9.80;;;2.60;;
25984;SDS011;66753;53.848;10.658;2023-05-18T07:30:18;2.83;;;1.50;;
25984;SDS011;66753;53.848;10.658;2023-05-18T07:45:20;4.00;;;1.33;;
25984;SDS011;66753;53.848;10.658;2023-05-18T08:00:23;3.63;;;1.00;;
25984;SDS011;66753;53.848;10.658;2023-05-18T08:15:24;4.47;;;1.20;;
25984;SDS011;66753;53.848;10.658;2023-05-18T08:30:25;6.77;;;1.50;;
25984;SDS011;66753;53.848;10.658;2023-05-18T09:01:13;9.00;;;1.77;;
25984;SDS011;66753;53.848;10.658;2023-05-18T09:16:15;4.13;;;1.40;;
25984;SDS011;66753;53.848;10.658;2023-05-18T09:31:18;4.97;;;1.40;;
25984;SDS011;66753;53.848;10.658;2023-05-18T09:46:21;4.53;;;1.30;;
25984;SDS011;66753;53.848;10.658;2023-05-18T10:01:22;6.90;;;2.40;;
25984;SDS011;66753;53.848;10.658;2023-05-18T10:16:23;3.67;;;1.70;;
25984;SDS011;66753;53.848;10.658;2023-05-18T10:31:26;4.70;;;1.77;;
25984;SDS011;66753;53.848;10.658;2023-05-18T10:46:29;3.87;;;1.57;;
25984;SDS011;66753;53.848;10.658;2023-05-18T11:01:31;3.97;;;1.67;;
25984;SDS011;66753;53.848;10.658;2023-05-18T11:16:34;5.67;;;2.17;;
25984;SDS011;66753;53.848;10.658;2023-05-18T11:31:46;5.17;;;2.23;;
25984;SDS011;66753;53.848;10.658;2023-05-18T12:02:00;8.00;;;2.27;;
25984;SDS011;66753;53.848;10.658;2023-05-18T12:17:03;6.43;;;2.10;;
25984;SDS011;66753;53.848;10.658;2023-05-18T12:32:09;4.80;;;1.90;;
25984;SDS011;66753;53.848;10.658;2023-05-18T12:47:12;5.80;;;2.30;;
25984;SDS011;66753;53.848;10.658;2023-05-18T13:02:26;4.37;;;1.53;;
25984;SDS011;66753;53.848;10.658;2023-05-18T13:17:33;4.43;;;1.60;;
25984;SDS011;66753;53.848;10.658;2023-05-18T13:32:34;7.60;;;2.80;;
25984;SDS011;66753;53.848;10.658;2023-05-18T13:47:35;6.87;;;2.10;;
25984;SDS011;66753;53.848;10.658;2023-05-18T14:02:40;5.57;;;2.10;;
25984;SDS011;66753;53.848;10.658;2023-05-18T14:17:43;7.23;;;1.90;;
25984;SDS011;66753;53.848;10.658;2023-05-18T14:32:44;3.33;;;2.00;;
25984;SDS011;66753;53.848;10.658;2023-05-18T14:47:45;6.13;;;2.00;;
25984;SDS011;66753;53.848;10.658;2023-05-18T15:02:47;6.10;;;2.27;;
25984;SDS011;66753;53.848;10.658;2023-05-18T15:17:49;7.10;;;2.10;;
25984;SDS011;66753;53.848;10.658;2023-05-18T15:32:50;6.07;;;2.13;;
25984;SDS011;66753;53.848;10.658;2023-05-18T15:47:52;4.33;;;2.50;;
25984;SDS011;66753;53.848;10.658;2023-05-18T16:02:53;8.83;;;4.87;;
25984;SDS011;66753;53.848;10.658;2023-05-18T16:17:56;7.20;;;5.43;;
25984;SDS011;66753;53.848;10.658;2023-05-18T16:47:59;5.60;;;2.20;;
25984;SDS011;66753;53.848;10.658;2023-05-18T17:03:03;5.50;;;2.43;;
25984;SDS011;66753;53.848;10.658;2023-05-18T17:18:04;10.13;;;4.57;;
25984;SDS011;66753;53.848;10.658;2023-05-18T17:33:06;4.23;;;1.60;;
25984;SDS011;66753;53.848;10.658;2023-05-18T17:48:08;4.63;;;1.90;;
25984;SDS011;66753;53.848;10.658;2023-05-18T18:03:09;4.50;;;1.87;;
25984;SDS011;66753;53.848;10.658;2023-05-18T18:18:12;6.53;;;2.10;;
25984;SDS011;66753;53.848;10.658;2023-05-18T18:33:14;5.83;;;1.90;;
25984;SDS011;66753;53.848;10.658;2023-05-18T18:48:15;6.30;;;2.10;;
25984;SDS011;66753;53.848;10.658;2023-05-18T19:03:20;3.50;;;2.07;;
25984;SDS011;66753;53.848;10.658;2023-05-18T19:18:22;7.53;;;2.00;;
25984;SDS011;66753;53.848;10.658;2023-05-18T19:33:23;4.37;;;1.70;;
25984;SDS011;66753;53.848;10.658;2023-05-18T19:48:26;4.30;;;1.90;;
25984;SDS011;66753;53.848;10.658;2023-05-18T20:03:28;4.60;;;2.20;;
25984;SDS011;66753;53.848;10.658;2023-05-18T20:18:32;4.90;;;1.97;;
25984;SDS011;66753;53.848;10.658;2023-05-18T20:33:34;4.40;;;2.13;;
25984;SDS011;66753;53.848;10.658;2023-05-18T20:48:36;6.47;;;2.00;;
25984;SDS011;66753;53.848;10.658;2023-05-18T21:03:45;7.13;;;2.40;;
25984;SDS011;66753;53.848;10.658;2023-05-18T21:18:47;4.93;;;2.27;;
25984;SDS011;66753;53.848;10.658;2023-05-18T21:33:49;4.53;;;1.97;;
25984;SDS011;66753;53.848;10.658;2023-05-18T21:48:53;4.53;;;2.33;;
25984;SDS011;66753;53.848;10.658;2023-05-18T22:03:54;6.93;;;2.33;;
25984;SDS011;66753;53.848;10.658;2023-05-18T22:18:56;5.87;;;2.10;;
25984;SDS011;66753;53.848;10.658;2023-05-18T22:33:57;5.47;;;1.90;;
25984;SDS011;66753;53.848;10.658;2023-05-18T22:48:59;5.90;;;2.00;;
25984;SDS011;66753;53.848;10.658;2023-05-18T23:04:00;4.90;;;2.20;;
25984;SDS011;66753;53.848;10.658;2023-05-18T23:19:02;6.53;;;2.47;;
25984;SDS011;66753;53.848;10.658;2023-05-18T23:34:04;4.87;;;2.73;;
25984;SDS011;66753;53.848;10.658;2023-05-18T23:49:06;3.93;;;2.40;;
